sensor_id;sensor_type;location;lat;lon;timestamp;P1;durP1;ratioP1;P2;durP2;ratioP2
14584;SDS011;7379;51.506;11.876;2023-08-06T00:00:36;4.95;;;3.58;;
14584;SDS011;7379;51.506;11.876;2023-08-06T00:03:03;4.55;;;3.80;;
14584;SDS011;7379;51.506;11.876;2023-08-06T00:05:30;4.82;;;3.58;;
14584;SDS011;7379;51.506;11.876;2023-08-06T00:07:57;4.03;;;3.63;;
14584;SDS011;7379;51.506;11.876;2023-08-06T00:10:25;4.63;;;3.40;;
14584;SDS011;7379;51.506;11.876;2023-08-06T00:12:52;4.25;;;3.85;;
14584;SDS011;7379;51.506;11.876;2023-08-06T00:15:18;4.10;;;3.70;;
14584;SDS011;7379;51.506;11.876;2023-08-06T00:17:45;7.25;;;3.80;;
14584;SDS011;7379;51.506;11.876;2023-08-06T00:20:12;4.88;;;3.70;;
14584;SDS011;7379;51.506;11.876;2023-08-06T00:22:39;5.72;;;4.00;;
14584;SDS011;7379;51.506;11.876;2023-08-06T00:25:06;4.28;;;3.78;;
14584;SDS011;7379;51.506;11.876;2023-08-06T00:27:34;5.50;;;4.18;;
14584;SDS011;7379;51.506;11.876;2023-08-06T00:30:01;5.95;;;4.25;;
14584;SDS011;7379;51.506;11.876;2023-08-06T00:32:28;6.35;;;4.15;;
14584;SDS011;7379;51.506;11.876;2023-08-06T00:34:54;5.75;;;4.05;;
14584;SDS011;7379;51.506;11.876;2023-08-06T00:37:21;5.15;;;4.03;;
14584;SDS011;7379;51.506;11.876;2023-08-06T00:39:48;4.93;;;3.97;;
14584;SDS011;7379;51.506;11.876;2023-08-06T00:42:15;6.47;;;4.00;;
14584;SDS011;7379;51.506;11.876;2023-08-06T00:44:47;5.07;;;4.10;;
14584;SDS011;7379;51.506;11.876;2023-08-06T00:47:14;5.97;;;4.35;;
14584;SDS011;7379;51.506;11.876;2023-08-06T00:49:41;6.22;;;4.40;;
14584;SDS011;7379;51.506;11.876;2023-08-06T00:52:08;4.88;;;4.07;;
14584;SDS011;7379;51.506;11.876;2023-08-06T00:54:35;5.28;;;4.50;;
14584;SDS011;7379;51.506;11.876;2023-08-06T00:57:03;5.57;;;4.20;;
14584;SDS011;7379;51.506;11.876;2023-08-06T00:59:30;4.57;;;3.70;;
14584;SDS011;7379;51.506;11.876;2023-08-06T01:01:59;4.32;;;3.63;;
14584;SDS011;7379;51.506;11.876;2023-08-06T01:04:26;4.40;;;3.85;;
14584;SDS011;7379;51.506;11.876;2023-08-06T01:06:55;4.28;;;3.55;;
14584;SDS011;7379;51.506;11.876;2023-08-06T01:09:31;5.28;;;3.10;;
14584;SDS011;7379;51.506;11.876;2023-08-06T01:12:06;3.58;;;3.10;;
14584;SDS011;7379;51.506;11.876;2023-08-06T01:14:44;3.63;;;3.10;;
14584;SDS011;7379;51.506;11.876;2023-08-06T01:17:16;3.50;;;2.65;;
14584;SDS011;7379;51.506;11.876;2023-08-06T01:19:43;4.28;;;2.88;;
14584;SDS011;7379;51.506;11.876;2023-08-06T01:22:11;3.10;;;2.80;;
14584;SDS011;7379;51.506;11.876;2023-08-06T01:24:38;3.05;;;2.75;;
14584;SDS011;7379;51.506;11.876;2023-08-06T01:27:08;3.10;;;2.60;;
14584;SDS011;7379;51.506;11.876;2023-08-06T01:29:41;3.22;;;2.80;;
14584;SDS011;7379;51.506;11.876;2023-08-06T01:32:15;2.65;;;2.45;;
14584;SDS011;7379;51.506;11.876;2023-08-06T01:34:43;2.53;;;2.33;;
14584;SDS011;7379;51.506;11.876;2023-08-06T01:37:13;2.92;;;2.40;;
14584;SDS011;7379;51.506;11.876;2023-08-06T01:39:40;2.75;;;2.47;;
14584;SDS011;7379;51.506;11.876;2023-08-06T01:42:08;2.50;;;2.30;;
14584;SDS011;7379;51.506;11.876;2023-08-06T01:44:35;2.55;;;2.28;;
14584;SDS011;7379;51.506;11.876;2023-08-06T01:47:02;3.17;;;2.45;;
14584;SDS011;7379;51.506;11.876;2023-08-06T01:49:29;3.15;;;2.10;;
14584;SDS011;7379;51.506;11.876;2023-08-06T01:51:56;2.40;;;2.20;;
14584;SDS011;7379;51.506;11.876;2023-08-06T01:54:24;2.50;;;2.30;;
14584;SDS011;7379;51.506;11.876;2023-08-06T01:56:51;2.30;;;2.10;;
14584;SDS011;7379;51.506;11.876;2023-08-06T01:59:17;2.83;;;2.30;;
14584;SDS011;7379;51.506;11.876;2023-08-06T02:01:44;2.33;;;2.13;;
14584;SDS011;7379;51.506;11.876;2023-08-06T02:04:12;2.40;;;2.20;;
14584;SDS011;7379;51.506;11.876;2023-08-06T02:06:38;2.08;;;1.92;;
14584;SDS011;7379;51.506;11.876;2023-08-06T02:09:05;2.85;;;2.35;;
14584;SDS011;7379;51.506;11.876;2023-08-06T02:11:33;2.25;;;2.05;;
14584;SDS011;7379;51.506;11.876;2023-08-06T02:14:00;2.20;;;2.00;;
14584;SDS011;7379;51.506;11.876;2023-08-06T02:16:27;3.38;;;1.90;;
14584;SDS011;7379;51.506;11.876;2023-08-06T02:18:53;2.17;;;1.98;;
14584;SDS011;7379;51.506;11.876;2023-08-06T02:21:20;2.10;;;1.90;;
14584;SDS011;7379;51.506;11.876;2023-08-06T02:23:47;2.17;;;1.98;;
14584;SDS011;7379;51.506;11.876;2023-08-06T02:26:13;2.17;;;1.98;;
14584;SDS011;7379;51.506;11.876;2023-08-06T02:28:41;2.20;;;2.00;;
14584;SDS011;7379;51.506;11.876;2023-08-06T02:31:08;2.20;;;1.90;;
14584;SDS011;7379;51.506;11.876;2023-08-06T02:33:35;2.20;;;2.00;;
14584;SDS011;7379;51.506;11.876;2023-08-06T02:36:02;2.10;;;1.90;;
14584;SDS011;7379;51.506;11.876;2023-08-06T02:38:29;1.90;;;1.80;;
14584;SDS011;7379;51.506;11.876;2023-08-06T02:40:56;1.90;;;1.80;;
14584;SDS011;7379;51.506;11.876;2023-08-06T02:43:23;1.90;;;1.70;;
14584;SDS011;7379;51.506;11.876;2023-08-06T02:45:51;3.40;;;2.00;;
14584;SDS011;7379;51.506;11.876;2023-08-06T02:48:17;2.00;;;1.80;;
14584;SDS011;7379;51.506;11.876;2023-08-06T02:50:44;4.07;;;1.98;;
14584;SDS011;7379;51.506;11.876;2023-08-06T02:53:11;1.65;;;1.55;;
14584;SDS011;7379;51.506;11.876;2023-08-06T02:55:38;1.95;;;1.83;;
14584;SDS011;7379;51.506;11.876;2023-08-06T02:58:11;1.77;;;1.67;;
14584;SDS011;7379;51.506;11.876;2023-08-06T03:00:38;2.10;;;1.90;;
14584;SDS011;7379;51.506;11.876;2023-08-06T03:03:06;2.10;;;1.90;;
14584;SDS011;7379;51.506;11.876;2023-08-06T03:05:32;2.67;;;1.77;;
14584;SDS011;7379;51.506;11.876;2023-08-06T03:07:59;1.95;;;1.80;;
14584;SDS011;7379;51.506;11.876;2023-08-06T03:10:26;2.22;;;1.88;;
14584;SDS011;7379;51.506;11.876;2023-08-06T03:12:53;2.38;;;1.73;;
14584;SDS011;7379;51.506;11.876;2023-08-06T03:15:19;2.05;;;1.80;;
14584;SDS011;7379;51.506;11.876;2023-08-06T03:17:46;1.92;;;1.80;;
14584;SDS011;7379;51.506;11.876;2023-08-06T03:20:14;3.15;;;1.83;;
14584;SDS011;7379;51.506;11.876;2023-08-06T03:22:41;2.15;;;1.80;;
14584;SDS011;7379;51.506;11.876;2023-08-06T03:25:08;2.80;;;1.80;;
14584;SDS011;7379;51.506;11.876;2023-08-06T03:27:34;1.90;;;1.70;;
14584;SDS011;7379;51.506;11.876;2023-08-06T03:30:01;1.98;;;1.80;;
14584;SDS011;7379;51.506;11.876;2023-08-06T03:32:28;1.98;;;1.80;;
14584;SDS011;7379;51.506;11.876;2023-08-06T03:34:54;2.33;;;1.80;;
14584;SDS011;7379;51.506;11.876;2023-08-06T03:37:22;2.40;;;1.73;;
14584;SDS011;7379;51.506;11.876;2023-08-06T03:39:49;2.83;;;1.77;;
14584;SDS011;7379;51.506;11.876;2023-08-06T03:42:16;2.45;;;1.80;;
14584;SDS011;7379;51.506;11.876;2023-08-06T03:44:42;3.75;;;2.00;;
14584;SDS011;7379;51.506;11.876;2023-08-06T03:47:09;1.80;;;1.55;;
14584;SDS011;7379;51.506;11.876;2023-08-06T03:49:36;2.60;;;1.80;;
14584;SDS011;7379;51.506;11.876;2023-08-06T03:52:03;2.00;;;1.80;;
14584;SDS011;7379;51.506;11.876;2023-08-06T03:54:31;2.13;;;1.73;;
14584;SDS011;7379;51.506;11.876;2023-08-06T03:56:58;1.98;;;1.77;;
14584;SDS011;7379;51.506;11.876;2023-08-06T03:59:25;2.00;;;1.80;;
14584;SDS011;7379;51.506;11.876;2023-08-06T04:01:52;2.95;;;1.83;;
14584;SDS011;7379;51.506;11.876;2023-08-06T04:04:18;2.45;;;1.90;;
14584;SDS011;7379;51.506;11.876;2023-08-06T04:06:45;2.05;;;1.95;;
14584;SDS011;7379;51.506;11.876;2023-08-06T04:09:12;1.90;;;1.80;;
14584;SDS011;7379;51.506;11.876;2023-08-06T04:11:40;1.88;;;1.77;;
14584;SDS011;7379;51.506;11.876;2023-08-06T04:14:07;2.05;;;1.80;;
14584;SDS011;7379;51.506;11.876;2023-08-06T04:16:34;1.90;;;1.73;;
14584;SDS011;7379;51.506;11.876;2023-08-06T04:19:00;1.90;;;1.80;;
14584;SDS011;7379;51.506;11.876;2023-08-06T04:21:27;2.00;;;1.80;;
14584;SDS011;7379;51.506;11.876;2023-08-06T04:23:55;3.13;;;2.00;;
14584;SDS011;7379;51.506;11.876;2023-08-06T04:26:22;1.90;;;1.80;;
14584;SDS011;7379;51.506;11.876;2023-08-06T04:28:50;1.73;;;1.60;;
14584;SDS011;7379;51.506;11.876;2023-08-06T04:31:17;2.17;;;1.98;;
14584;SDS011;7379;51.506;11.876;2023-08-06T04:33:44;2.17;;;1.98;;
14584;SDS011;7379;51.506;11.876;2023-08-06T04:36:11;1.77;;;1.67;;
14584;SDS011;7379;51.506;11.876;2023-08-06T04:38:38;1.75;;;1.65;;
14584;SDS011;7379;51.506;11.876;2023-08-06T04:41:06;1.90;;;1.70;;
14584;SDS011;7379;51.506;11.876;2023-08-06T04:43:33;1.83;;;1.70;;
14584;SDS011;7379;51.506;11.876;2023-08-06T04:46:01;1.98;;;1.80;;
14584;SDS011;7379;51.506;11.876;2023-08-06T04:48:27;2.10;;;1.90;;
14584;SDS011;7379;51.506;11.876;2023-08-06T04:50:54;1.92;;;1.80;;
14584;SDS011;7379;51.506;11.876;2023-08-06T04:53:21;1.85;;;1.75;;
14584;SDS011;7379;51.506;11.876;2023-08-06T04:55:48;1.90;;;1.80;;
14584;SDS011;7379;51.506;11.876;2023-08-06T04:58:14;1.65;;;1.55;;
14584;SDS011;7379;51.506;11.876;2023-08-06T05:00:41;2.10;;;1.90;;
14584;SDS011;7379;51.506;11.876;2023-08-06T05:03:09;2.25;;;1.80;;
14584;SDS011;7379;51.506;11.876;2023-08-06T05:05:36;1.88;;;1.65;;
14584;SDS011;7379;51.506;11.876;2023-08-06T05:08:05;2.45;;;1.73;;
14584;SDS011;7379;51.506;11.876;2023-08-06T05:10:32;2.22;;;1.90;;
14584;SDS011;7379;51.506;11.876;2023-08-06T05:12:59;2.33;;;2.00;;
14584;SDS011;7379;51.506;11.876;2023-08-06T05:15:26;2.22;;;1.90;;
14584;SDS011;7379;51.506;11.876;2023-08-06T05:17:52;2.33;;;1.80;;
14584;SDS011;7379;51.506;11.876;2023-08-06T05:20:21;2.33;;;1.98;;
14584;SDS011;7379;51.506;11.876;2023-08-06T05:22:47;2.13;;;1.80;;
14584;SDS011;7379;51.506;11.876;2023-08-06T05:25:14;2.40;;;2.00;;
14584;SDS011;7379;51.506;11.876;2023-08-06T05:27:41;3.22;;;2.03;;
14584;SDS011;7379;51.506;11.876;2023-08-06T05:30:08;3.60;;;2.03;;
14584;SDS011;7379;51.506;11.876;2023-08-06T05:32:35;2.00;;;1.80;;
14584;SDS011;7379;51.506;11.876;2023-08-06T05:35:02;1.92;;;1.73;;
14584;SDS011;7379;51.506;11.876;2023-08-06T05:37:31;2.03;;;1.83;;
14584;SDS011;7379;51.506;11.876;2023-08-06T05:39:57;2.00;;;1.80;;
14584;SDS011;7379;51.506;11.876;2023-08-06T05:42:24;2.95;;;2.00;;
14584;SDS011;7379;51.506;11.876;2023-08-06T05:44:51;2.13;;;1.92;;
14584;SDS011;7379;51.506;11.876;2023-08-06T05:47:17;2.40;;;1.90;;
14584;SDS011;7379;51.506;11.876;2023-08-06T05:49:45;2.20;;;2.00;;
14584;SDS011;7379;51.506;11.876;2023-08-06T05:52:12;2.20;;;1.80;;
14584;SDS011;7379;51.506;11.876;2023-08-06T05:54:40;1.90;;;1.70;;
14584;SDS011;7379;51.506;11.876;2023-08-06T05:57:06;2.47;;;2.10;;
14584;SDS011;7379;51.506;11.876;2023-08-06T05:59:33;2.15;;;1.88;;
14584;SDS011;7379;51.506;11.876;2023-08-06T06:02:00;2.00;;;1.90;;
14584;SDS011;7379;51.506;11.876;2023-08-06T06:04:27;2.35;;;2.10;;
14584;SDS011;7379;51.506;11.876;2023-08-06T06:06:54;2.03;;;1.80;;
14584;SDS011;7379;51.506;11.876;2023-08-06T06:09:21;3.03;;;2.10;;
14584;SDS011;7379;51.506;11.876;2023-08-06T06:11:49;2.15;;;1.70;;
14584;SDS011;7379;51.506;11.876;2023-08-06T06:14:16;2.10;;;1.90;;
14584;SDS011;7379;51.506;11.876;2023-08-06T06:16:42;2.10;;;1.90;;
14584;SDS011;7379;51.506;11.876;2023-08-06T06:19:09;2.03;;;1.90;;
14584;SDS011;7379;51.506;11.876;2023-08-06T06:21:36;2.30;;;2.10;;
14584;SDS011;7379;51.506;11.876;2023-08-06T06:24:03;2.13;;;1.92;;
14584;SDS011;7379;51.506;11.876;2023-08-06T06:26:30;2.20;;;2.00;;
14584;SDS011;7379;51.506;11.876;2023-08-06T06:28:58;2.10;;;1.90;;
14584;SDS011;7379;51.506;11.876;2023-08-06T06:31:25;2.15;;;1.95;;
14584;SDS011;7379;51.506;11.876;2023-08-06T06:33:52;2.65;;;2.28;;
14584;SDS011;7379;51.506;11.876;2023-08-06T06:36:19;3.15;;;1.92;;
14584;SDS011;7379;51.506;11.876;2023-08-06T06:38:46;2.90;;;2.05;;
14584;SDS011;7379;51.506;11.876;2023-08-06T06:41:14;2.35;;;2.10;;
14584;SDS011;7379;51.506;11.876;2023-08-06T06:43:40;2.20;;;2.00;;
14584;SDS011;7379;51.506;11.876;2023-08-06T06:46:09;2.35;;;2.13;;
14584;SDS011;7379;51.506;11.876;2023-08-06T06:48:36;2.20;;;2.00;;
14584;SDS011;7379;51.506;11.876;2023-08-06T06:51:02;6.47;;;2.30;;
14584;SDS011;7379;51.506;11.876;2023-08-06T06:53:29;5.47;;;2.63;;
14584;SDS011;7379;51.506;11.876;2023-08-06T06:55:56;3.35;;;2.10;;
14584;SDS011;7379;51.506;11.876;2023-08-06T06:58:28;2.78;;;2.10;;
14584;SDS011;7379;51.506;11.876;2023-08-06T07:00:54;2.67;;;2.00;;
14584;SDS011;7379;51.506;11.876;2023-08-06T07:03:22;2.42;;;2.10;;
14584;SDS011;7379;51.506;11.876;2023-08-06T07:05:49;4.50;;;2.35;;
14584;SDS011;7379;51.506;11.876;2023-08-06T07:08:16;3.15;;;2.10;;
14584;SDS011;7379;51.506;11.876;2023-08-06T07:10:43;2.22;;;2.00;;
14584;SDS011;7379;51.506;11.876;2023-08-06T07:13:09;4.60;;;2.00;;
14584;SDS011;7379;51.506;11.876;2023-08-06T07:15:36;2.58;;;2.15;;
14584;SDS011;7379;51.506;11.876;2023-08-06T07:18:03;2.28;;;2.08;;
14584;SDS011;7379;51.506;11.876;2023-08-06T07:20:31;2.55;;;2.10;;
14584;SDS011;7379;51.506;11.876;2023-08-06T07:22:59;2.40;;;2.00;;
14584;SDS011;7379;51.506;11.876;2023-08-06T07:25:26;1.90;;;1.80;;
14584;SDS011;7379;51.506;11.876;2023-08-06T07:27:52;2.63;;;2.10;;
14584;SDS011;7379;51.506;11.876;2023-08-06T07:30:19;2.20;;;2.00;;
14584;SDS011;7379;51.506;11.876;2023-08-06T07:32:46;3.80;;;2.30;;
14584;SDS011;7379;51.506;11.876;2023-08-06T07:35:13;6.45;;;2.40;;
14584;SDS011;7379;51.506;11.876;2023-08-06T07:37:41;5.93;;;2.65;;
14584;SDS011;7379;51.506;11.876;2023-08-06T07:40:08;2.95;;;2.10;;
14584;SDS011;7379;51.506;11.876;2023-08-06T07:42:35;4.00;;;2.13;;
14584;SDS011;7379;51.506;11.876;2023-08-06T07:45:02;3.50;;;2.10;;
14584;SDS011;7379;51.506;11.876;2023-08-06T07:47:29;2.78;;;2.35;;
14584;SDS011;7379;51.506;11.876;2023-08-06T07:49:56;3.47;;;2.25;;
14584;SDS011;7379;51.506;11.876;2023-08-06T07:52:22;4.55;;;2.40;;
14584;SDS011;7379;51.506;11.876;2023-08-06T07:54:50;2.63;;;1.90;;
14584;SDS011;7379;51.506;11.876;2023-08-06T07:57:17;2.03;;;1.88;;
14584;SDS011;7379;51.506;11.876;2023-08-06T07:59:44;3.90;;;2.13;;
14584;SDS011;7379;51.506;11.876;2023-08-06T08:02:10;2.78;;;2.05;;
14584;SDS011;7379;51.506;11.876;2023-08-06T08:04:37;2.53;;;2.33;;
14584;SDS011;7379;51.506;11.876;2023-08-06T08:07:04;4.65;;;2.42;;
14584;SDS011;7379;51.506;11.876;2023-08-06T08:09:31;3.20;;;2.22;;
14584;SDS011;7379;51.506;11.876;2023-08-06T08:11:59;2.38;;;2.10;;
14584;SDS011;7379;51.506;11.876;2023-08-06T08:14:27;3.58;;;2.30;;
14584;SDS011;7379;51.506;11.876;2023-08-06T08:17:00;2.90;;;2.35;;
14584;SDS011;7379;51.506;11.876;2023-08-06T08:19:27;2.58;;;2.30;;
14584;SDS011;7379;51.506;11.876;2023-08-06T08:21:54;2.35;;;2.15;;
14584;SDS011;7379;51.506;11.876;2023-08-06T08:24:21;2.85;;;2.30;;
14584;SDS011;7379;51.506;11.876;2023-08-06T08:26:49;2.50;;;2.30;;
14584;SDS011;7379;51.506;11.876;2023-08-06T08:29:17;3.28;;;2.60;;
14584;SDS011;7379;51.506;11.876;2023-08-06T08:31:45;3.22;;;2.17;;
14584;SDS011;7379;51.506;11.876;2023-08-06T08:34:14;2.10;;;1.90;;
14584;SDS011;7379;51.506;11.876;2023-08-06T08:36:40;2.65;;;2.15;;
14584;SDS011;7379;51.506;11.876;2023-08-06T08:39:07;2.40;;;2.20;;
14584;SDS011;7379;51.506;11.876;2023-08-06T08:41:36;2.47;;;2.28;;
14584;SDS011;7379;51.506;11.876;2023-08-06T08:44:03;2.60;;;2.30;;
14584;SDS011;7379;51.506;11.876;2023-08-06T08:46:36;2.58;;;2.30;;
14584;SDS011;7379;51.506;11.876;2023-08-06T08:49:04;3.33;;;2.38;;
14584;SDS011;7379;51.506;11.876;2023-08-06T08:51:31;2.72;;;2.25;;
14584;SDS011;7379;51.506;11.876;2023-08-06T08:53:59;2.95;;;2.20;;
14584;SDS011;7379;51.506;11.876;2023-08-06T08:56:28;2.40;;;2.20;;
14584;SDS011;7379;51.506;11.876;2023-08-06T08:58:55;2.58;;;2.22;;
14584;SDS011;7379;51.506;11.876;2023-08-06T09:01:22;3.05;;;2.13;;
14584;SDS011;7379;51.506;11.876;2023-08-06T09:03:51;2.30;;;2.10;;
14584;SDS011;7379;51.506;11.876;2023-08-06T09:06:19;2.35;;;2.00;;
14584;SDS011;7379;51.506;11.876;2023-08-06T09:08:49;2.35;;;2.15;;
14584;SDS011;7379;51.506;11.876;2023-08-06T09:11:20;3.22;;;2.33;;
14584;SDS011;7379;51.506;11.876;2023-08-06T09:13:47;2.50;;;2.15;;
14584;SDS011;7379;51.506;11.876;2023-08-06T09:16:14;2.40;;;2.20;;
14584;SDS011;7379;51.506;11.876;2023-08-06T09:18:41;2.28;;;2.08;;
14584;SDS011;7379;51.506;11.876;2023-08-06T09:21:14;2.20;;;2.00;;
14584;SDS011;7379;51.506;11.876;2023-08-06T09:23:41;2.33;;;2.03;;
14584;SDS011;7379;51.506;11.876;2023-08-06T09:26:10;2.60;;;2.20;;
14584;SDS011;7379;51.506;11.876;2023-08-06T09:28:37;2.85;;;2.35;;
14584;SDS011;7379;51.506;11.876;2023-08-06T09:31:07;3.08;;;2.20;;
14584;SDS011;7379;51.506;11.876;2023-08-06T09:33:35;2.30;;;2.10;;
14584;SDS011;7379;51.506;11.876;2023-08-06T09:36:09;2.25;;;2.03;;
14584;SDS011;7379;51.506;11.876;2023-08-06T09:38:41;2.30;;;2.10;;
14584;SDS011;7379;51.506;11.876;2023-08-06T09:41:07;2.40;;;2.20;;
14584;SDS011;7379;51.506;11.876;2023-08-06T09:43:40;3.25;;;2.10;;
14584;SDS011;7379;51.506;11.876;2023-08-06T09:46:11;2.50;;;2.20;;
14584;SDS011;7379;51.506;11.876;2023-08-06T09:48:39;2.90;;;2.00;;
14584;SDS011;7379;51.506;11.876;2023-08-06T09:51:07;2.67;;;2.35;;
14584;SDS011;7379;51.506;11.876;2023-08-06T09:53:34;2.65;;;2.13;;
14584;SDS011;7379;51.506;11.876;2023-08-06T09:56:04;3.35;;;2.60;;
14584;SDS011;7379;51.506;11.876;2023-08-06T09:58:32;2.38;;;2.17;;
14584;SDS011;7379;51.506;11.876;2023-08-06T10:00:59;2.25;;;2.05;;
14584;SDS011;7379;51.506;11.876;2023-08-06T10:03:27;2.40;;;2.20;;
14584;SDS011;7379;51.506;11.876;2023-08-06T10:05:56;2.60;;;2.20;;
14584;SDS011;7379;51.506;11.876;2023-08-06T10:08:23;2.22;;;2.03;;
14584;SDS011;7379;51.506;11.876;2023-08-06T10:10:50;3.17;;;2.38;;
14584;SDS011;7379;51.506;11.876;2023-08-06T10:13:19;3.95;;;2.30;;
14584;SDS011;7379;51.506;11.876;2023-08-06T10:15:48;2.38;;;2.17;;
14584;SDS011;7379;51.506;11.876;2023-08-06T10:18:16;2.40;;;2.20;;
14584;SDS011;7379;51.506;11.876;2023-08-06T10:20:47;2.55;;;2.35;;
14584;SDS011;7379;51.506;11.876;2023-08-06T10:23:14;2.40;;;2.20;;
14584;SDS011;7379;51.506;11.876;2023-08-06T10:25:42;2.67;;;2.35;;
14584;SDS011;7379;51.506;11.876;2023-08-06T10:28:09;3.05;;;2.10;;
14584;SDS011;7379;51.506;11.876;2023-08-06T10:30:42;3.60;;;1.88;;
14584;SDS011;7379;51.506;11.876;2023-08-06T10:33:10;2.30;;;2.10;;
14584;SDS011;7379;51.506;11.876;2023-08-06T10:35:37;2.70;;;2.30;;
14584;SDS011;7379;51.506;11.876;2023-08-06T10:38:09;2.53;;;2.33;;
14584;SDS011;7379;51.506;11.876;2023-08-06T10:40:36;2.72;;;2.30;;
14584;SDS011;7379;51.506;11.876;2023-08-06T10:43:05;2.95;;;2.35;;
14584;SDS011;7379;51.506;11.876;2023-08-06T10:45:34;2.40;;;2.15;;
14584;SDS011;7379;51.506;11.876;2023-08-06T10:48:03;2.55;;;2.33;;
14584;SDS011;7379;51.506;11.876;2023-08-06T10:50:31;2.47;;;2.08;;
14584;SDS011;7379;51.506;11.876;2023-08-06T10:53:00;2.30;;;2.10;;
14584;SDS011;7379;51.506;11.876;2023-08-06T10:55:31;2.83;;;2.35;;
14584;SDS011;7379;51.506;11.876;2023-08-06T10:57:58;5.75;;;2.30;;
14584;SDS011;7379;51.506;11.876;2023-08-06T11:00:25;6.55;;;2.22;;
14584;SDS011;7379;51.506;11.876;2023-08-06T11:02:52;2.30;;;2.10;;
14584;SDS011;7379;51.506;11.876;2023-08-06T11:05:21;3.38;;;2.17;;
14584;SDS011;7379;51.506;11.876;2023-08-06T11:07:48;2.97;;;2.10;;
14584;SDS011;7379;51.506;11.876;2023-08-06T11:10:16;2.25;;;2.05;;
14584;SDS011;7379;51.506;11.876;2023-08-06T11:12:43;2.50;;;2.05;;
14584;SDS011;7379;51.506;11.876;2023-08-06T11:15:10;2.10;;;1.90;;
14584;SDS011;7379;51.506;11.876;2023-08-06T11:17:37;2.53;;;2.30;;
14584;SDS011;7379;51.506;11.876;2023-08-06T11:20:12;2.42;;;1.95;;
14584;SDS011;7379;51.506;11.876;2023-08-06T11:22:40;2.10;;;1.90;;
14584;SDS011;7379;51.506;11.876;2023-08-06T11:25:08;2.50;;;2.08;;
14584;SDS011;7379;51.506;11.876;2023-08-06T11:27:34;2.10;;;1.90;;
14584;SDS011;7379;51.506;11.876;2023-08-06T11:30:01;3.67;;;2.00;;
14584;SDS011;7379;51.506;11.876;2023-08-06T11:32:29;2.20;;;2.00;;
14584;SDS011;7379;51.506;11.876;2023-08-06T11:34:55;2.80;;;2.10;;
14584;SDS011;7379;51.506;11.876;2023-08-06T11:37:22;4.03;;;2.20;;
14584;SDS011;7379;51.506;11.876;2023-08-06T11:39:51;2.45;;;1.90;;
14584;SDS011;7379;51.506;11.876;2023-08-06T11:42:18;3.03;;;1.85;;
14584;SDS011;7379;51.506;11.876;2023-08-06T11:44:45;2.10;;;1.90;;
14584;SDS011;7379;51.506;11.876;2023-08-06T11:47:13;2.42;;;2.22;;
14584;SDS011;7379;51.506;11.876;2023-08-06T11:49:41;2.47;;;2.10;;
14584;SDS011;7379;51.506;11.876;2023-08-06T11:52:14;3.60;;;3.20;;
14584;SDS011;7379;51.506;11.876;2023-08-06T11:54:44;4.22;;;2.95;;
14584;SDS011;7379;51.506;11.876;2023-08-06T11:57:12;3.17;;;2.55;;
14584;SDS011;7379;51.506;11.876;2023-08-06T11:59:39;2.55;;;2.35;;
14584;SDS011;7379;51.506;11.876;2023-08-06T12:02:07;2.10;;;1.95;;
14584;SDS011;7379;51.506;11.876;2023-08-06T12:07:26;2.53;;;2.30;;
14584;SDS011;7379;51.506;11.876;2023-08-06T12:09:53;2.47;;;2.25;;
14584;SDS011;7379;51.506;11.876;2023-08-06T12:12:21;2.50;;;2.30;;
14584;SDS011;7379;51.506;11.876;2023-08-06T12:14:48;2.40;;;2.20;;
14584;SDS011;7379;51.506;11.876;2023-08-06T12:17:15;2.60;;;2.22;;
14584;SDS011;7379;51.506;11.876;2023-08-06T12:19:43;2.15;;;1.90;;
14584;SDS011;7379;51.506;11.876;2023-08-06T12:22:10;2.10;;;1.90;;
14584;SDS011;7379;51.506;11.876;2023-08-06T12:24:38;2.60;;;2.10;;
14584;SDS011;7379;51.506;11.876;2023-08-06T12:27:05;2.90;;;2.40;;
14584;SDS011;7379;51.506;11.876;2023-08-06T12:29:33;2.17;;;1.98;;
14584;SDS011;7379;51.506;11.876;2023-08-06T12:32:00;2.50;;;2.20;;
14584;SDS011;7379;51.506;11.876;2023-08-06T12:34:27;3.60;;;2.45;;
14584;SDS011;7379;51.506;11.876;2023-08-06T12:36:53;2.30;;;2.10;;
14584;SDS011;7379;51.506;11.876;2023-08-06T12:39:20;2.97;;;2.10;;
14584;SDS011;7379;51.506;11.876;2023-08-06T12:41:47;3.00;;;2.20;;
14584;SDS011;7379;51.506;11.876;2023-08-06T12:44:13;2.30;;;1.95;;
14584;SDS011;7379;51.506;11.876;2023-08-06T12:46:42;2.50;;;2.22;;
14584;SDS011;7379;51.506;11.876;2023-08-06T12:49:08;2.45;;;1.95;;
14584;SDS011;7379;51.506;11.876;2023-08-06T12:51:35;2.17;;;1.98;;
14584;SDS011;7379;51.506;11.876;2023-08-06T12:54:02;2.47;;;2.00;;
14584;SDS011;7379;51.506;11.876;2023-08-06T12:56:28;3.13;;;1.80;;
14584;SDS011;7379;51.506;11.876;2023-08-06T12:58:55;3.83;;;2.22;;
14584;SDS011;7379;51.506;11.876;2023-08-06T13:01:22;3.08;;;2.33;;
14584;SDS011;7379;51.506;11.876;2023-08-06T13:03:50;2.30;;;2.10;;
14584;SDS011;7379;51.506;11.876;2023-08-06T13:06:17;2.20;;;2.00;;
14584;SDS011;7379;51.506;11.876;2023-08-06T13:08:43;2.97;;;1.90;;
14584;SDS011;7379;51.506;11.876;2023-08-06T13:11:10;2.20;;;1.90;;
14584;SDS011;7379;51.506;11.876;2023-08-06T13:13:37;2.38;;;2.17;;
14584;SDS011;7379;51.506;11.876;2023-08-06T13:16:03;2.13;;;1.92;;
14584;SDS011;7379;51.506;11.876;2023-08-06T13:18:30;2.35;;;2.03;;
14584;SDS011;7379;51.506;11.876;2023-08-06T13:20:59;2.20;;;2.00;;
14584;SDS011;7379;51.506;11.876;2023-08-06T13:23:25;2.33;;;2.10;;
14584;SDS011;7379;51.506;11.876;2023-08-06T13:25:52;2.95;;;2.10;;
14584;SDS011;7379;51.506;11.876;2023-08-06T13:28:20;2.20;;;2.00;;
14584;SDS011;7379;51.506;11.876;2023-08-06T13:30:47;2.60;;;2.13;;
14584;SDS011;7379;51.506;11.876;2023-08-06T13:33:14;2.55;;;1.80;;
14584;SDS011;7379;51.506;11.876;2023-08-06T13:35:40;3.08;;;1.98;;
14584;SDS011;7379;51.506;11.876;2023-08-06T13:38:08;2.50;;;2.10;;
14584;SDS011;7379;51.506;11.876;2023-08-06T13:40:35;3.13;;;1.90;;
14584;SDS011;7379;51.506;11.876;2023-08-06T13:43:02;3.92;;;1.90;;
14584;SDS011;7379;51.506;11.876;2023-08-06T13:45:29;3.33;;;2.08;;
14584;SDS011;7379;51.506;11.876;2023-08-06T13:47:56;3.58;;;1.90;;
14584;SDS011;7379;51.506;11.876;2023-08-06T13:50:23;2.10;;;1.90;;
14584;SDS011;7379;51.506;11.876;2023-08-06T13:52:51;2.47;;;2.05;;
14584;SDS011;7379;51.506;11.876;2023-08-06T13:55:21;2.13;;;1.85;;
14584;SDS011;7379;51.506;11.876;2023-08-06T13:57:48;2.22;;;1.75;;
14584;SDS011;7379;51.506;11.876;2023-08-06T14:00:16;2.53;;;1.80;;
14584;SDS011;7379;51.506;11.876;2023-08-06T14:02:42;2.33;;;1.88;;
14584;SDS011;7379;51.506;11.876;2023-08-06T14:05:09;1.90;;;1.70;;
14584;SDS011;7379;51.506;11.876;2023-08-06T14:07:36;1.80;;;1.60;;
14584;SDS011;7379;51.506;11.876;2023-08-06T14:10:03;2.15;;;1.90;;
14584;SDS011;7379;51.506;11.876;2023-08-06T14:12:32;2.00;;;1.80;;
14584;SDS011;7379;51.506;11.876;2023-08-06T14:14:59;3.17;;;1.70;;
14584;SDS011;7379;51.506;11.876;2023-08-06T14:17:27;2.72;;;1.85;;
14584;SDS011;7379;51.506;11.876;2023-08-06T14:19:53;2.08;;;1.88;;
14584;SDS011;7379;51.506;11.876;2023-08-06T14:22:21;2.25;;;1.70;;
14584;SDS011;7379;51.506;11.876;2023-08-06T14:24:48;2.13;;;1.92;;
14584;SDS011;7379;51.506;11.876;2023-08-06T14:27:15;3.20;;;1.88;;
14584;SDS011;7379;51.506;11.876;2023-08-06T14:29:43;3.20;;;1.92;;
14584;SDS011;7379;51.506;11.876;2023-08-06T14:32:09;2.00;;;1.60;;
14584;SDS011;7379;51.506;11.876;2023-08-06T14:34:36;2.47;;;1.90;;
14584;SDS011;7379;51.506;11.876;2023-08-06T14:37:03;2.00;;;1.80;;
14584;SDS011;7379;51.506;11.876;2023-08-06T14:39:30;1.75;;;1.65;;
14584;SDS011;7379;51.506;11.876;2023-08-06T14:41:56;1.80;;;1.70;;
14584;SDS011;7379;51.506;11.876;2023-08-06T14:44:23;1.98;;;1.70;;
14584;SDS011;7379;51.506;11.876;2023-08-06T14:46:51;3.78;;;1.73;;
14584;SDS011;7379;51.506;11.876;2023-08-06T14:49:18;3.80;;;1.90;;
14584;SDS011;7379;51.506;11.876;2023-08-06T14:51:45;2.38;;;1.98;;